createdAt,value
2023-05-12T00:02:13.246Z,100309.72
2023-05-12T00:04:41.440Z,100312.45
2023-05-12T00:07:09.662Z,100313.31
2023-05-12T00:09:37.468Z,100311.08
2023-05-12T00:12:05.647Z,100306.18
2023-05-12T00:14:33.378Z,100307.33
2023-05-12T00:17:01.250Z,100308.11
2023-05-12T00:19:29.126Z,100308.16
2023-05-12T00:21:57.117Z,100305.79
2023-05-12T00:24:25.468Z,100305.64
2023-05-12T00:26:54.169Z,100307.30
2023-05-12T00:29:22.026Z,100309.23
2023-05-12T00:31:49.917Z,100308.38
2023-05-12T00:34:17.765Z,100307.61
2023-05-12T00:36:45.649Z,100305.20
2023-05-12T00:39:13.632Z,100306.92
2023-05-12T00:41:41.784Z,100305.61
2023-05-12T00:44:10.026Z,100301.19
2023-05-12T00:46:39.326Z,100301.66
2023-05-12T00:49:07.944Z,100296.42
2023-05-12T00:51:36.173Z,100292.28
2023-05-12T00:54:04.145Z,100288.11
2023-05-12T00:56:39.326Z,100286.91
2023-05-12T00:59:09.020Z,100284.04
2023-05-12T01:01:40.744Z,100283.29
2023-05-12T01:04:08.991Z,100282.23
2023-05-12T01:07:19.825Z,100279.83
2023-05-12T01:09:48.362Z,100280.52
2023-05-12T01:12:16.394Z,100277.80
2023-05-12T01:14:44.968Z,100282.74
2023-05-12T01:17:14.099Z,100279.75
2023-05-12T01:19:52.146Z,100283.55
2023-05-12T01:22:20.768Z,100284.19
2023-05-12T01:24:59.101Z,100282.30
2023-05-12T01:27:29.925Z,100279.48
2023-05-12T01:30:00.436Z,100279.98
2023-05-12T01:32:30.646Z,100278.02
2023-05-12T01:34:59.414Z,100279.47
2023-05-12T01:37:27.473Z,100278.36
2023-05-12T01:39:55.811Z,100274.90
2023-05-12T01:42:23.688Z,100273.14
2023-05-12T01:44:52.002Z,100274.20
2023-05-12T01:47:21.654Z,100271.23
2023-05-12T01:49:58.840Z,100266.96
2023-05-12T01:52:28.083Z,100260.95
2023-05-12T01:54:55.989Z,100260.14
2023-05-12T01:57:24.337Z,100261.53
2023-05-12T01:59:55.307Z,100258.39
2023-05-12T02:02:23.392Z,100257.87
2023-05-12T02:04:51.460Z,100254.55
2023-05-12T02:07:19.369Z,100255.24
2023-05-12T02:09:49.089Z,100259.99
2023-05-12T02:12:17.779Z,100256.39
2023-05-12T02:14:45.617Z,100255.48
2023-05-12T02:17:14.061Z,100256.23
2023-05-12T02:19:42.366Z,100253.27
2023-05-12T02:22:11.487Z,100251.20
2023-05-12T02:24:39.482Z,100250.73
2023-05-12T02:27:08.396Z,100247.98
2023-05-12T02:29:37.796Z,100250.35
2023-05-12T02:32:08.036Z,100250.21
2023-05-12T02:34:36.046Z,100251.42
2023-05-12T02:37:04.199Z,100253.69
2023-05-12T02:39:32.355Z,100256.93
2023-05-12T02:42:00.927Z,100255.23
2023-05-12T02:44:28.878Z,100255.91
2023-05-12T02:46:58.083Z,100254.88
2023-05-12T02:49:25.930Z,100257.13
2023-05-12T02:51:55.457Z,100254.11
2023-05-12T02:54:23.396Z,100255.40
2023-05-12T02:56:51.557Z,100254.64
2023-05-12T02:59:19.464Z,100254.45
2023-05-12T03:01:47.414Z,100252.36
2023-05-12T03:04:15.860Z,100253.64
2023-05-12T03:06:43.787Z,100254.34
2023-05-12T03:09:11.688Z,100249.70
2023-05-12T03:11:39.527Z,100255.99
2023-05-12T03:14:07.396Z,100258.25
2023-05-12T03:16:35.556Z,100256.30
2023-05-12T03:19:05.351Z,100260.36
2023-05-12T03:21:33.619Z,100260.27
2023-05-12T03:24:01.701Z,100258.95
2023-05-12T03:26:29.674Z,100258.34
2023-05-12T03:28:57.493Z,100256.80
2023-05-12T03:31:26.128Z,100256.09
2023-05-12T03:33:54.267Z,100255.14
2023-05-12T03:36:23.953Z,100259.41
2023-05-12T03:38:51.949Z,100262.67
2023-05-12T03:41:20.013Z,100262.59
2023-05-12T03:43:48.974Z,100264.35
2023-05-12T03:46:16.933Z,100263.54
2023-05-12T03:48:44.909Z,100265.07
2023-05-12T03:51:13.091Z,100267.52
2023-05-12T03:53:45.316Z,100270.60
2023-05-12T03:56:15.685Z,100271.88
2023-05-12T03:58:44.341Z,100273.62
2023-05-12T04:01:12.192Z,100274.14
2023-05-12T04:03:41.514Z,100279.38
2023-05-12T04:06:10.052Z,100281.69
2023-05-12T04:08:40.333Z,100279.34
2023-05-12T04:11:10.698Z,100279.64
2023-05-12T04:13:38.684Z,100286.47
2023-05-12T04:16:06.763Z,100290.79
2023-05-12T04:18:35.914Z,100292.23
2023-05-12T04:21:03.916Z,100298.88
2023-05-12T04:23:31.806Z,100296.34
2023-05-12T04:25:59.814Z,100297.23
2023-05-12T04:28:27.900Z,100299.08
2023-05-12T04:30:55.870Z,100300.86
2023-05-12T04:33:24.682Z,100301.69
2023-05-12T04:35:57.125Z,100301.35
2023-05-12T04:38:26.270Z,100301.33
2023-05-12T04:40:58.912Z,100297.16
2023-05-12T04:46:00.248Z,100305.08
2023-05-12T04:48:31.956Z,100307.64
2023-05-12T04:51:00.542Z,100308.05
2023-05-12T04:53:28.547Z,100305.95
2023-05-12T04:55:56.759Z,100307.10
2023-05-12T04:58:25.589Z,100305.44
2023-05-12T05:00:53.946Z,100307.30
2023-05-12T05:03:22.693Z,100307.06
2023-05-12T05:05:51.680Z,100308.26
2023-05-12T05:08:19.660Z,100310.42
2023-05-12T05:10:47.643Z,100309.70
2023-05-12T05:13:16.492Z,100312.81
2023-05-12T05:15:55.111Z,100315.18
2023-05-12T05:18:24.869Z,100316.73
2023-05-12T05:20:58.340Z,100318.25
2023-05-12T05:23:27.513Z,100319.06
2023-05-12T05:25:56.215Z,100321.36
2023-05-12T05:28:24.461Z,100322.60
2023-05-12T05:30:52.792Z,100323.59
2023-05-12T05:33:21.348Z,100321.08
2023-05-12T05:35:49.531Z,100322.81
2023-05-12T05:38:17.943Z,100319.69
2023-05-12T05:40:53.145Z,100323.90
2023-05-12T05:43:23.623Z,100321.13
2023-05-12T05:45:52.056Z,100325.41
2023-05-12T05:48:21.966Z,100326.20
2023-05-12T05:50:54.291Z,100325.14
2023-05-12T05:53:23.733Z,100330.03
2023-05-12T05:55:52.724Z,100336.36
2023-05-12T05:58:20.633Z,100333.80
2023-05-12T06:00:49.133Z,100338.95
2023-05-12T06:03:17.073Z,100338.95
2023-05-12T06:05:45.797Z,100341.88
2023-05-12T06:08:14.016Z,100340.56
2023-05-12T06:10:42.007Z,100340.84
2023-05-12T06:13:10.262Z,100340.38
2023-05-12T06:15:38.747Z,100340.58
2023-05-12T06:18:06.627Z,100342.23
2023-05-12T06:20:34.674Z,100341.46
2023-05-12T06:23:02.801Z,100342.58
2023-05-12T06:25:33.038Z,100342.64
2023-05-12T06:28:02.031Z,100346.98
2023-05-12T06:30:30.067Z,100347.92
2023-05-12T06:32:58.059Z,100346.58
2023-05-12T06:35:25.923Z,100348.98
2023-05-12T06:37:53.902Z,100351.13
2023-05-12T06:40:21.882Z,100353.56
2023-05-12T06:42:50.200Z,100355.91
2023-05-12T06:45:21.356Z,100359.34
2023-05-12T06:47:50.474Z,100361.88
2023-05-12T06:50:20.121Z,100364.27
2023-05-12T06:52:52.284Z,100367.50
2023-05-12T06:55:21.257Z,100367.30
2023-05-12T06:57:51.777Z,100366.05
2023-05-12T07:00:20.452Z,100366.73
2023-05-12T07:02:48.400Z,100369.08
2023-05-12T07:05:16.875Z,100368.52
2023-05-12T07:07:45.726Z,100374.75
2023-05-12T07:10:13.570Z,100376.38
2023-05-12T07:12:41.845Z,100380.16
2023-05-12T07:15:10.123Z,100380.87
2023-05-12T07:17:38.014Z,100384.23
2023-05-12T07:20:07.238Z,100387.38
2023-05-12T07:22:37.934Z,100390.59
2023-05-12T07:25:08.027Z,100388.30
2023-05-12T07:27:35.963Z,100392.26
2023-05-12T07:30:05.931Z,100395.52
2023-05-12T07:32:34.445Z,100397.52
2023-05-12T07:35:03.733Z,100394.34
2023-05-12T07:37:32.229Z,100394.52
2023-05-12T07:40:00.232Z,100395.55
2023-05-12T07:42:28.071Z,100395.92
2023-05-12T07:44:56.423Z,100397.27
2023-05-12T07:47:24.337Z,100398.89
2023-05-12T07:49:52.178Z,100400.31
2023-05-12T07:52:20.118Z,100404.06
2023-05-12T07:54:48.080Z,100405.40
2023-05-12T07:57:16.748Z,100412.16
2023-05-12T07:59:44.668Z,100413.55
2023-05-12T08:02:13.036Z,100417.52
2023-05-12T08:04:42.073Z,100418.45
2023-05-12T08:07:11.858Z,100422.55
2023-05-12T08:09:39.746Z,100424.92
2023-05-12T08:12:07.796Z,100427.20
2023-05-12T08:14:35.751Z,100430.59
2023-05-12T08:17:05.190Z,100432.70
2023-05-12T08:19:33.228Z,100434.19
2023-05-12T08:22:02.110Z,100432.84
2023-05-12T08:24:30.753Z,100438.70
2023-05-12T08:26:58.622Z,100436.21
2023-05-12T08:29:26.486Z,100438.15
2023-05-12T08:31:54.577Z,100438.73
2023-05-12T08:34:22.549Z,100443.18
2023-05-12T08:36:52.673Z,100443.77
2023-05-12T08:39:21.886Z,100446.11
2023-05-12T08:42:02.636Z,100444.56
2023-05-12T08:44:31.293Z,100443.27
2023-05-12T08:47:01.690Z,100440.79
2023-05-12T08:49:32.372Z,100442.81
2023-05-12T08:52:02.452Z,100441.32
2023-05-12T08:54:30.508Z,100441.68
2023-05-12T08:59:31.532Z,100442.65
2023-05-12T09:02:04.377Z,100445.53
2023-05-12T09:04:33.293Z,100445.93
2023-05-12T09:07:01.489Z,100445.85
2023-05-12T09:09:32.822Z,100446.80
2023-05-12T09:12:02.915Z,100446.77
2023-05-12T09:14:35.920Z,100445.84
2023-05-12T09:17:05.118Z,100450.91
2023-05-12T09:19:34.406Z,100455.15
2023-05-12T09:22:02.413Z,100454.73
2023-05-12T09:24:38.006Z,100455.38
2023-05-12T09:27:07.211Z,100458.16
2023-05-12T09:29:45.118Z,100459.90
2023-05-12T09:32:16.213Z,100460.52
2023-05-12T09:34:44.709Z,100462.48
2023-05-12T09:37:15.388Z,100465.23
2023-05-12T09:39:44.313Z,100466.21
2023-05-12T09:42:12.960Z,100467.48
2023-05-12T09:44:41.463Z,100465.33
2023-05-12T09:47:10.536Z,100466.27
2023-05-12T09:49:38.809Z,100467.54
2023-05-12T09:52:06.797Z,100469.91
2023-05-12T09:54:34.802Z,100466.40
2023-05-12T09:57:08.743Z,100465.71
2023-05-12T09:59:40.023Z,100467.02
2023-05-12T10:02:09.559Z,100462.30
2023-05-12T10:04:48.201Z,100459.02
2023-05-12T10:07:17.540Z,100456.30
2023-05-12T10:09:45.853Z,100458.14
2023-05-12T10:12:14.186Z,100458.55
2023-05-12T10:14:43.543Z,100458.14
2023-05-12T10:17:12.584Z,100460.45
2023-05-12T10:19:41.973Z,100459.33
2023-05-12T10:22:13.865Z,100460.75
2023-05-12T10:24:41.887Z,100464.45
2023-05-12T10:27:10.388Z,100462.63
2023-05-12T10:29:39.722Z,100460.16
2023-05-12T10:32:07.629Z,100461.98
2023-05-12T10:34:43.469Z,100465.81
2023-05-12T10:37:11.663Z,100464.69
2023-05-12T10:39:52.920Z,100467.83
2023-05-12T10:42:26.365Z,100468.92
2023-05-12T10:44:56.587Z,100469.96
2023-05-12T10:47:38.031Z,100468.76
2023-05-12T10:50:07.289Z,100465.55
2023-05-12T10:52:35.485Z,100467.80
2023-05-12T10:55:04.547Z,100466.63
2023-05-12T10:57:33.777Z,100462.34
2023-05-12T11:00:04.100Z,100459.77
2023-05-12T11:02:36.018Z,100459.04
2023-05-12T11:05:13.171Z,100460.29
2023-05-12T11:07:49.995Z,100461.24
2023-05-12T11:10:19.642Z,100459.83
2023-05-12T11:12:47.979Z,100460.79
2023-05-12T11:15:18.093Z,100461.48
2023-05-12T11:17:46.438Z,100462.34
2023-05-12T11:20:26.741Z,100463.17
2023-05-12T11:22:56.512Z,100464.28
2023-05-12T11:25:28.332Z,100464.89
2023-05-12T11:27:58.486Z,100463.61
2023-05-12T11:30:27.046Z,100461.20
2023-05-12T11:33:02.499Z,100460.71
2023-05-12T11:35:32.614Z,100457.32
2023-05-12T11:38:03.031Z,100458.21
2023-05-12T11:40:31.014Z,100460.98
2023-05-12T11:43:10.165Z,100462.19
2023-05-12T11:45:38.272Z,100462.07
2023-05-12T11:48:08.973Z,100462.02
2023-05-12T11:50:38.403Z,100463.39
2023-05-12T11:53:15.024Z,100465.10
2023-05-12T11:55:54.388Z,100461.88
2023-05-12T11:58:27.243Z,100456.27
2023-05-12T12:00:57.239Z,100459.09
2023-05-12T12:03:25.636Z,100459.50
2023-05-12T12:06:02.010Z,100460.66
2023-05-12T12:08:31.007Z,100458.33
2023-05-12T12:11:00.042Z,100460.65
2023-05-12T12:13:30.027Z,100461.71
2023-05-12T12:15:58.029Z,100462.36
2023-05-12T12:18:27.630Z,100463.05
2023-05-12T12:20:58.623Z,100463.46
2023-05-12T12:23:26.404Z,100464.17
2023-05-12T12:25:54.238Z,100463.31
2023-05-12T12:28:22.187Z,100461.90
2023-05-12T12:30:50.559Z,100458.96
2023-05-12T12:33:20.488Z,100460.15
2023-05-12T12:35:48.771Z,100458.12
2023-05-12T12:38:16.730Z,100454.54
2023-05-12T12:40:45.240Z,100452.63
2023-05-12T12:43:13.093Z,100450.18
2023-05-12T12:45:40.977Z,100452.13
2023-05-12T12:48:09.281Z,100450.61
2023-05-12T12:50:37.298Z,100450.19
2023-05-12T12:53:06.197Z,100450.36
2023-05-12T12:55:34.056Z,100451.56
2023-05-12T12:58:01.877Z,100448.55
2023-05-12T13:00:29.710Z,100443.61
2023-05-12T13:02:59.297Z,100439.89
2023-05-12T13:05:27.422Z,100437.91
2023-05-12T13:07:56.067Z,100437.05
2023-05-12T13:10:25.549Z,100440.08
2023-05-12T13:12:53.798Z,100442.82
2023-05-12T13:15:21.913Z,100442.91
2023-05-12T13:17:50.032Z,100443.80
2023-05-12T13:20:18.613Z,100439.40
2023-05-12T13:22:46.719Z,100441.18
2023-05-12T13:25:14.740Z,100440.31
2023-05-12T13:27:42.553Z,100437.73
2023-05-12T13:30:13.951Z,100438.33
2023-05-12T13:32:42.438Z,100435.13
2023-05-12T13:35:10.640Z,100434.66
2023-05-12T13:37:40.172Z,100434.12
2023-05-12T13:40:08.723Z,100432.05
2023-05-12T13:42:39.740Z,100433.20
2023-05-12T13:45:09.423Z,100437.02
2023-05-12T13:47:37.989Z,100438.52
2023-05-12T13:50:07.460Z,100436.38
2023-05-12T13:52:35.835Z,100436.70
2023-05-12T13:55:03.918Z,100436.88
2023-05-12T13:57:31.794Z,100436.98
2023-05-12T13:59:59.694Z,100437.75
2023-05-12T14:02:27.830Z,100440.91
2023-05-12T14:04:56.640Z,100441.23
2023-05-12T14:07:25.558Z,100443.80
2023-05-12T14:09:53.720Z,100444.66
2023-05-12T14:12:22.209Z,100445.27
2023-05-12T14:14:50.697Z,100447.17
2023-05-12T14:17:18.725Z,100448.81
2023-05-12T14:19:46.982Z,100453.31
2023-05-12T14:22:25.282Z,100453.38
2023-05-12T14:24:55.881Z,100453.38
2023-05-12T14:27:24.134Z,100453.59
2023-05-12T14:29:52.069Z,100452.68
2023-05-12T14:32:19.846Z,100452.34
2023-05-12T14:34:47.702Z,100453.40
2023-05-12T14:37:15.565Z,100457.70
2023-05-12T14:39:43.820Z,100456.21
2023-05-12T14:42:11.925Z,100455.56
2023-05-12T14:44:39.803Z,100454.39
2023-05-12T14:47:09.255Z,100454.23
2023-05-12T14:49:37.275Z,100456.53
2023-05-12T14:52:05.674Z,100459.02
2023-05-12T14:54:34.509Z,100456.30
2023-05-12T14:57:03.687Z,100454.40
2023-05-12T14:59:31.625Z,100454.00
2023-05-12T15:01:59.611Z,100454.07
2023-05-12T15:04:27.638Z,100454.51
2023-05-12T15:06:55.494Z,100454.43
2023-05-12T15:09:23.452Z,100454.55
2023-05-12T15:11:51.692Z,100455.13
2023-05-12T15:14:19.664Z,100455.96
2023-05-12T15:16:47.606Z,100456.45
2023-05-12T15:19:17.624Z,100456.52
2023-05-12T15:21:45.750Z,100459.23
2023-05-12T15:24:13.672Z,100459.34
2023-05-12T15:26:41.456Z,100460.77
2023-05-12T15:29:09.386Z,100461.25
2023-05-12T15:31:37.450Z,100460.59
2023-05-12T15:34:05.514Z,100463.05
2023-05-12T15:36:34.010Z,100460.83
2023-05-12T15:39:03.942Z,100462.73
2023-05-12T15:41:31.876Z,100464.61
2023-05-12T15:44:00.182Z,100466.34
2023-05-12T15:46:28.728Z,100469.48
2023-05-12T15:48:58.285Z,100467.60
2023-05-12T15:51:26.117Z,100471.12
2023-05-12T15:53:54.433Z,100469.94
2023-05-12T15:56:23.129Z,100470.20
2023-05-12T15:58:50.978Z,100472.02
2023-05-12T16:01:18.972Z,100472.46
2023-05-12T16:03:47.008Z,100473.30
2023-05-12T16:06:15.084Z,100474.48
2023-05-12T16:08:42.996Z,100474.39
2023-05-12T16:11:12.553Z,100476.79
2023-05-12T16:13:40.928Z,100480.98
2023-05-12T16:16:08.964Z,100486.36
2023-05-12T16:18:37.059Z,100487.56
2023-05-12T16:21:05.389Z,100489.70
2023-05-12T16:23:33.519Z,100492.91
2023-05-12T16:26:01.411Z,100492.45
2023-05-12T16:28:29.405Z,100491.66
2023-05-12T16:30:57.991Z,100492.36
2023-05-12T16:33:25.926Z,100494.27
2023-05-12T16:35:54.173Z,100497.00
2023-05-12T16:38:22.047Z,100498.06
2023-05-12T16:40:50.276Z,100497.30
2023-05-12T16:43:18.230Z,100499.16
2023-05-12T16:45:46.481Z,100498.41
2023-05-12T16:48:14.542Z,100498.91
2023-05-12T16:50:42.461Z,100501.58
2023-05-12T16:53:10.307Z,100504.21
2023-05-12T16:55:38.246Z,100508.20
2023-05-12T16:58:07.257Z,100508.21
2023-05-12T17:00:35.012Z,100506.60
2023-05-12T17:03:04.700Z,100510.35
2023-05-12T17:05:33.343Z,100509.48
2023-05-12T17:08:01.231Z,100510.14
2023-05-12T17:10:29.419Z,100510.31
2023-05-12T17:12:57.535Z,100509.94
2023-05-12T17:15:25.534Z,100512.24
2023-05-12T17:17:53.752Z,100509.73
2023-05-12T17:20:22.101Z,100512.52
2023-05-12T17:22:51.840Z,100510.66
2023-05-12T17:25:20.989Z,100512.03
2023-05-12T17:27:49.431Z,100521.11
2023-05-12T17:30:18.773Z,100524.63
2023-05-12T17:32:46.865Z,100528.31
2023-05-12T17:35:15.012Z,100531.95
2023-05-12T17:37:42.800Z,100531.80
2023-05-12T17:40:16.233Z,100535.58
2023-05-12T17:42:45.237Z,100540.95
2023-05-12T17:45:15.980Z,100540.11
2023-05-12T17:47:45.130Z,100543.95
2023-05-12T17:50:15.066Z,100544.52
2023-05-12T17:52:43.628Z,100547.91
2023-05-12T17:55:11.440Z,100548.52
2023-05-12T17:57:39.433Z,100551.71
2023-05-12T18:00:10.493Z,100554.82
2023-05-12T18:02:45.215Z,100555.35
2023-05-12T18:05:13.657Z,100557.86
2023-05-12T18:07:41.758Z,100559.59
2023-05-12T18:10:11.211Z,100563.70
2023-05-12T18:12:39.400Z,100569.33
2023-05-12T18:15:08.588Z,100567.96
2023-05-12T18:17:36.911Z,100571.56
2023-05-12T18:20:06.759Z,100576.48
2023-05-12T18:22:34.891Z,100576.86
2023-05-12T18:25:02.885Z,100575.79
2023-05-12T18:27:31.058Z,100574.84
2023-05-12T18:29:58.918Z,100575.48
2023-05-12T18:32:26.968Z,100578.35
2023-05-12T18:34:55.064Z,100580.61
2023-05-12T18:37:25.876Z,100584.59
2023-05-12T18:39:54.438Z,100588.27
2023-05-12T18:42:22.477Z,100590.40
2023-05-12T18:44:52.498Z,100589.08
2023-05-12T18:47:21.261Z,100592.73
2023-05-12T18:49:49.362Z,100592.14
2023-05-12T18:52:17.573Z,100593.05
2023-05-12T18:54:47.482Z,100596.74
2023-05-12T18:57:18.915Z,100595.96
2023-05-12T18:59:46.850Z,100595.87
2023-05-12T19:02:14.727Z,100595.90
2023-05-12T19:04:42.892Z,100599.90
2023-05-12T19:07:15.297Z,100599.59
2023-05-12T19:09:46.168Z,100598.69
2023-05-12T19:12:14.313Z,100599.39
2023-05-12T19:14:43.353Z,100598.23
2023-05-12T19:17:14.265Z,100598.37
2023-05-12T19:19:42.539Z,100600.23
2023-05-12T19:22:10.335Z,100598.88
2023-05-12T19:24:38.265Z,100600.36
2023-05-12T19:27:06.214Z,100599.33
2023-05-12T19:29:34.120Z,100600.17
2023-05-12T19:32:04.098Z,100605.96
2023-05-12T19:34:32.668Z,100606.86
2023-05-12T19:37:01.317Z,100608.31
2023-05-12T19:39:29.777Z,100610.58
2023-05-12T19:41:58.305Z,100612.59
2023-05-12T19:44:30.188Z,100614.93
2023-05-12T19:47:04.515Z,100613.63
2023-05-12T19:49:40.404Z,100614.86
2023-05-12T19:52:08.821Z,100614.30
2023-05-12T19:54:39.754Z,100615.90
2023-05-12T19:57:10.102Z,100613.30
2023-05-12T19:59:38.388Z,100617.67
2023-05-12T20:02:07.028Z,100617.70
2023-05-12T20:04:35.046Z,100618.05
2023-05-12T20:07:03.479Z,100618.90
2023-05-12T20:09:31.435Z,100620.38
2023-05-12T20:12:01.240Z,100617.16
2023-05-12T20:14:29.182Z,100616.27
2023-05-12T20:17:05.490Z,100618.27
2023-05-12T20:19:33.781Z,100612.45
2023-05-12T20:22:04.728Z,100611.56
2023-05-12T20:24:32.913Z,100609.86
2023-05-12T20:27:08.167Z,100609.39
2023-05-12T20:29:36.158Z,100611.35
2023-05-12T20:32:04.261Z,100606.05
2023-05-12T20:34:32.089Z,100607.46
2023-05-12T20:37:00.144Z,100606.23
2023-05-12T20:39:29.052Z,100607.05
2023-05-12T20:41:56.873Z,100607.51
2023-05-12T20:44:26.484Z,100608.96
2023-05-12T20:46:54.529Z,100613.36
2023-05-12T20:49:22.683Z,100614.16
2023-05-12T20:51:50.890Z,100617.91
2023-05-12T20:54:18.727Z,100620.34
2023-05-12T20:56:46.592Z,100620.64
2023-05-12T20:59:14.485Z,100622.77
2023-05-12T21:01:42.353Z,100621.50
2023-05-12T21:04:10.381Z,100620.77
2023-05-12T21:06:38.417Z,100620.65
2023-05-12T21:09:06.213Z,100624.27
2023-05-12T21:11:34.259Z,100622.98
2023-05-12T21:14:02.281Z,100626.56
2023-05-12T21:16:30.189Z,100622.49
2023-05-12T21:18:58.202Z,100623.43
2023-05-12T21:21:26.297Z,100624.85
2023-05-12T21:23:54.293Z,100624.95
2023-05-12T21:26:22.205Z,100626.27
2023-05-12T21:28:50.124Z,100625.06
2023-05-12T21:31:18.539Z,100624.46
2023-05-12T21:33:46.803Z,100625.85
2023-05-12T21:36:14.752Z,100620.41
2023-05-12T21:38:42.735Z,100620.95
2023-05-12T21:41:10.864Z,100621.52
2023-05-12T21:43:38.753Z,100618.83
2023-05-12T21:46:06.690Z,100620.06
2023-05-12T21:48:34.444Z,100620.06
2023-05-12T21:51:03.836Z,100623.10
2023-05-12T21:53:31.772Z,100624.73
2023-05-12T21:55:59.745Z,100628.55
2023-05-12T21:58:28.318Z,100630.38
2023-05-12T22:00:56.442Z,100634.48
2023-05-12T22:03:25.388Z,100632.20
2023-05-12T22:05:53.370Z,100636.29
2023-05-12T22:08:21.239Z,100635.69
2023-05-12T22:10:49.309Z,100637.68
2023-05-12T22:13:17.107Z,100637.62
2023-05-12T22:15:45.067Z,100640.27
2023-05-12T22:18:13.196Z,100639.33
2023-05-12T22:20:41.471Z,100639.91
2023-05-12T22:23:09.258Z,100638.55
2023-05-12T22:25:38.118Z,100637.13
2023-05-12T22:28:07.259Z,100637.27
2023-05-12T22:30:35.460Z,100640.58
2023-05-12T22:33:03.450Z,100640.95
2023-05-12T22:35:31.566Z,100639.27
2023-05-12T22:37:59.585Z,100636.40
2023-05-12T22:40:27.917Z,100634.64
2023-05-12T22:42:55.698Z,100639.38
2023-05-12T22:45:23.701Z,100638.60
2023-05-12T22:47:51.530Z,100636.39
2023-05-12T22:50:19.886Z,100637.67
2023-05-12T22:52:48.056Z,100639.70
2023-05-12T22:55:15.859Z,100638.88
2023-05-12T22:57:46.157Z,100640.17
2023-05-12T23:00:14.739Z,100639.05
2023-05-12T23:02:42.635Z,100639.52
2023-05-12T23:05:10.628Z,100635.73
2023-05-12T23:07:38.566Z,100637.20
2023-05-12T23:10:07.209Z,100633.89
2023-05-12T23:12:35.209Z,100631.30
2023-05-12T23:15:04.489Z,100628.40
2023-05-12T23:17:32.657Z,100629.21
2023-05-12T23:20:00.732Z,100628.86
2023-05-12T23:22:28.486Z,100627.80
2023-05-12T23:24:58.347Z,100630.69
2023-05-12T23:27:26.760Z,100633.11
2023-05-12T23:29:54.636Z,100630.65
2023-05-12T23:32:22.567Z,100632.84
2023-05-12T23:34:50.996Z,100633.23
2023-05-12T23:37:21.671Z,100632.20
2023-05-12T23:39:49.506Z,100629.23
2023-05-12T23:42:17.442Z,100632.98
2023-05-12T23:44:45.350Z,100634.16
2023-05-12T23:47:13.282Z,100638.30
2023-05-12T23:49:41.105Z,100634.48
2023-05-12T23:52:08.963Z,100632.61
2023-05-12T23:54:36.910Z,100633.64
2023-05-12T23:57:05.056Z,100634.54
2023-05-12T23:59:33.054Z,100631.42
